Time,TemperatureF,DewpointF,PressureIn,WindDirection,WindDirectionDegrees,WindSpeedMPH,WindSpeedGustMPH,Humidity,HourlyPrecipIn,Conditions,Clouds,dailyrainin,SoftwareType,DateUTC
2013-02-13 00:05:00,66.8,66.8,29.76,SSW,208,0.0,0.0,100,0.00,,,0.00,Wunderground v.1.15,2013-02-13 06:05:00,
2013-02-13 00:14:00,66.6,66.6,29.77,SW,225,0.0,0.0,100,0.00,,,0.00,Wunderground v.1.15,2013-02-13 06:14:00,
2013-02-13 00:19:00,66.6,66.6,29.77,West,279,0.0,0.0,100,0.00,,,0.00,Wunderground v.1.15,2013-02-13 06:19:00,
2013-02-13 00:30:00,66.6,66.6,29.77,WSW,253,0.0,0.0,100,0.00,,,0.00,Wunderground v.1.15,2013-02-13 06:30:00,
2013-02-13 00:35:00,66.6,66.6,29.78,West,259,0.0,0.0,100,0.00,,,0.00,Wunderground v.1.15,2013-02-13 06:35:00,
2013-02-13 00:40:00,66.5,66.5,29.77,SW,229,0.0,0.0,100,0.00,,,0.00,Wunderground v.1.15,2013-02-13 06:40:00,
2013-02-13 00:48:00,66.4,66.0,29.78,SW,231,0.0,1.0,100,0.00,,,0.00,weatherlink.com 1.10,2013-02-13 06:48:00,
2013-02-13 00:55:00,66.1,66.1,29.79,WNW,294,0.0,0.0,100,0.00,,,0.00,Wunderground v.1.15,2013-02-13 06:55:00,
2013-02-13 01:00:00,66.0,66.0,29.78,NE,51,0.0,0.0,100,0.00,,,0.00,Wunderground v.1.15,2013-02-13 07:00:00,
2013-02-13 01:05:00,66.0,66.0,29.78,NW,304,0.0,0.0,100,0.00,,,0.00,Wunderground v.1.15,2013-02-13 07:05:00,
2013-02-13 01:15:00,65.8,65.8,29.78,NW,326,0.0,1.0,100,0.00,,,0.00,Wunderground v.1.15,2013-02-13 07:15:00,
2013-02-13 01:24:00,65.7,65.7,29.79,NNW,327,0.0,0.0,100,0.00,,,0.00,Wunderground v.1.15,2013-02-13 07:24:00,
2013-02-13 01:29:00,65.6,65.6,29.79,WNW,290,0.0,0.0,100,0.00,,,0.00,Wunderground v.1.15,2013-02-13 07:29:00,
2013-02-13 01:35:00,65.6,65.6,29.79,WNW,290,0.0,1.0,100,0.00,,,0.00,Wunderground v.1.15,2013-02-13 07:35:00,
2013-02-13 01:40:00,65.4,65.4,29.79,SW,218,1.0,2.0,100,0.00,,,0.00,Wunderground v.1.15,2013-02-13 07:40:00,
2013-02-13 01:45:00,65.2,64.9,29.79,West,269,1.0,2.0,99,0.00,,,0.00,Wunderground v.1.15,2013-02-13 07:45:00,
2013-02-13 01:50:00,64.8,64.5,29.80,South,176,1.0,2.0,99,0.00,,,0.00,Wunderground v.1.15,2013-02-13 07:50:00,
2013-02-13 02:00:00,64.3,64.0,29.80,West,274,1.0,3.0,99,0.00,,,0.00,Wunderground v.1.15,2013-02-13 08:00:00,
2013-02-13 02:05:00,64.1,63.5,29.80,NW,309,1.0,3.0,98,0.00,,,0.00,Wunderground v.1.15,2013-02-13 08:05:00,
2013-02-13 02:15:00,63.6,62.7,29.80,WSW,238,0.0,1.0,97,0.00,,,0.00,Wunderground v.1.15,2013-02-13 08:15:00,
2013-02-13 02:20:00,63.4,62.5,29.81,WNW,302,0.0,0.0,97,0.00,,,0.00,Wunderground v.1.15,2013-02-13 08:20:00,
2013-02-13 02:25:00,63.1,62.2,29.81,South,186,1.0,1.0,97,0.00,,,0.00,Wunderground v.1.15,2013-02-13 08:25:00,
2013-02-13 02:30:00,62.8,61.9,29.82,NNE,23,0.0,0.0,97,0.00,,,0.00,Wunderground v.1.15,2013-02-13 08:30:00,
2013-02-13 02:35:00,62.5,61.6,29.82,WNW,297,0.0,0.0,97,0.00,,,0.00,Wunderground v.1.15,2013-02-13 08:35:00,
2013-02-13 02:40:00,62.2,61.0,29.82,SW,219,0.0,0.0,96,0.00,,,0.00,Wunderground v.1.15,2013-02-13 08:40:00,
2013-02-13 02:45:00,61.9,60.5,29.82,NW,324,1.0,1.0,95,0.00,,,0.00,Wunderground v.1.15,2013-02-13 08:45:00,
2013-02-13 02:50:00,61.6,60.2,29.82,NE,47,1.0,1.0,95,0.00,,,0.00,Wunderground v.1.15,2013-02-13 08:50:00,
2013-02-13 02:55:00,61.3,59.6,29.82,West,266,1.0,1.0,94,0.00,,,0.00,Wunderground v.1.15,2013-02-13 08:55:00,
2013-02-13 03:00:00,61.0,59.3,29.83,WNW,295,1.0,1.0,94,0.00,,,0.00,Wunderground v.1.15,2013-02-13 09:00:00,
2013-02-13 03:05:00,60.6,58.9,29.83,West,274,1.0,1.0,94,0.00,,,0.00,Wunderground v.1.15,2013-02-13 09:05:00,
2013-02-13 03:15:00,60.0,58.6,29.83,West,281,0.0,1.0,95,0.00,,,0.00,Wunderground v.1.15,2013-02-13 09:15:00,
2013-02-13 03:20:00,59.8,58.4,29.83,West,274,0.0,0.0,95,0.00,,,0.00,Wunderground v.1.15,2013-02-13 09:20:00,
2013-02-13 03:34:00,58.8,58.0,29.84,WSW,238,0.0,0.0,96,0.00,,,0.00,weatherlink.com 1.10,2013-02-13 09:34:00,
2013-02-13 03:49:00,57.8,57.0,29.83,WSW,238,0.0,0.0,97,0.00,,,0.00,weatherlink.com 1.10,2013-02-13 09:49:00,
2013-02-13 04:04:00,57.0,56.0,29.84,WNW,303,0.0,0.0,97,0.00,,,0.00,weatherlink.com 1.10,2013-02-13 10:04:00,
2013-02-13 04:19:00,56.2,56.0,29.85,NW,304,0.0,0.0,98,0.00,,,0.00,weatherlink.com 1.10,2013-02-13 10:19:00,
2013-02-13 04:34:00,55.3,55.0,29.86,WNW,303,0.0,0.0,98,0.00,,,0.00,weatherlink.com 1.10,2013-02-13 10:34:00,
2013-02-13 04:49:00,54.9,55.0,29.87,WNW,289,0.0,0.0,99,0.00,,,0.00,weatherlink.com 1.10,2013-02-13 10:49:00,
2013-02-13 05:04:00,54.7,55.0,29.87,SW,225,0.0,0.0,99,0.00,,,0.00,weatherlink.com 1.10,2013-02-13 11:04:00,
2013-02-13 05:10:00,54.6,54.3,29.87,NW,314,0.0,0.0,99,0.00,,,0.00,Wunderground v.1.15,2013-02-13 11:10:00,
2013-02-13 05:15:00,54.5,54.2,29.86,WSW,256,0.0,0.0,99,0.00,,,0.00,Wunderground v.1.15,2013-02-13 11:15:00,
2013-02-13 05:20:00,54.3,54.0,29.86,SE,140,0.0,0.0,99,0.00,,,0.00,Wunderground v.1.15,2013-02-13 11:20:00,
2013-02-13 05:25:00,54.1,53.5,29.86,West,259,0.0,0.0,98,0.00,,,0.00,Wunderground v.1.15,2013-02-13 11:25:00,
2013-02-13 05:30:00,53.9,53.3,29.85,WNW,291,0.0,0.0,98,0.00,,,0.00,Wunderground v.1.15,2013-02-13 11:30:00,
2013-02-13 05:35:00,53.7,53.1,29.85,NW,314,0.0,0.0,98,0.00,,,0.00,Wunderground v.1.15,2013-02-13 11:35:00,
2013-02-13 05:49:00,53.6,53.0,29.87,WNW,288,0.0,0.0,98,0.00,,,0.00,weatherlink.com 1.10,2013-02-13 11:49:00,
2013-02-13 06:04:00,53.6,53.0,29.88,NW,311,0.0,3.0,98,0.00,,,0.00,weatherlink.com 1.10,2013-02-13 12:04:00,
2013-02-13 06:19:00,53.6,53.0,29.88,West,260,0.0,1.0,97,0.00,,,0.00,weatherlink.com 1.10,2013-02-13 12:19:00,
2013-02-13 06:34:00,52.9,52.0,29.89,NW,318,0.0,0.0,97,0.00,,,0.00,weatherlink.com 1.10,2013-02-13 12:34:00,
2013-02-13 06:49:00,52.7,52.0,29.92,NNW,331,0.0,3.0,97,0.00,,,0.00,weatherlink.com 1.10,2013-02-13 12:49:00,
2013-02-13 07:04:00,52.7,52.0,29.92,WNW,300,2.0,3.0,97,0.00,,,0.00,weatherlink.com 1.10,2013-02-13 13:04:00,
2013-02-13 07:19:00,52.9,51.0,29.92,West,260,0.0,4.0,94,0.00,,,0.00,weatherlink.com 1.10,2013-02-13 13:19:00,
2013-02-13 07:34:00,53.5,51.0,29.91,ESE,113,1.0,6.0,92,0.00,,,0.00,weatherlink.com 1.10,2013-02-13 13:34:00,
2013-02-13 07:49:00,53.6,51.0,29.91,ENE,75,0.0,3.0,91,0.00,,,0.00,weatherlink.com 1.10,2013-02-13 13:49:00,
2013-02-13 08:04:00,53.8,51.0,29.92,West,272,0.0,2.0,91,0.00,,,0.00,weatherlink.com 1.10,2013-02-13 14:04:00,
2013-02-13 08:19:00,54.0,51.0,29.92,NW,315,0.0,6.0,90,0.00,,,0.00,weatherlink.com 1.10,2013-02-13 14:19:00,
2013-02-13 08:34:00,53.8,51.0,29.91,WNW,285,1.0,8.0,89,0.00,,,0.00,weatherlink.com 1.10,2013-02-13 14:34:00,
2013-02-13 08:49:00,53.8,51.0,29.93,NW,319,2.0,8.0,89,0.00,,,0.00,weatherlink.com 1.10,2013-02-13 14:49:00,
2013-02-13 08:55:00,53.9,50.7,29.93,NNW,340,1.0,3.0,89,0.00,,,0.00,Wunderground v.1.15,2013-02-13 14:55:00,
2013-02-13 09:00:00,53.9,50.4,29.92,WNW,297,3.0,3.0,88,0.00,,,0.00,Wunderground v.1.15,2013-02-13 15:00:00,
2013-02-13 09:05:00,54.1,51.0,29.93,West,264,2.0,9.0,88,0.00,,,0.00,weatherlink.com 1.10,2013-02-13 15:05:00,
2013-02-13 09:15:00,53.9,50.1,29.93,SW,226,2.0,5.0,87,0.00,,,0.00,Wunderground v.1.15,2013-02-13 15:15:00,
2013-02-13 09:20:00,54.3,50.5,29.93,West,278,2.0,2.0,87,0.00,,,0.00,Wunderground v.1.15,2013-02-13 15:20:00,
2013-02-13 09:25:00,54.7,50.6,29.93,WNW,293,2.0,2.0,86,0.00,,,0.00,Wunderground v.1.15,2013-02-13 15:25:00,
2013-02-13 09:35:00,54.8,50.0,29.93,WNW,295,1.0,6.0,85,0.00,,,0.00,weatherlink.com 1.10,2013-02-13 15:35:00,
2013-02-13 09:51:00,54.7,50.0,29.93,West,278,1.0,6.0,84,0.00,,,0.00,weatherlink.com 1.10,2013-02-13 15:51:00,
2013-02-13 10:05:00,54.5,50.0,29.94,West,281,0.0,5.0,84,0.00,,,0.00,weatherlink.com 1.10,2013-02-13 16:05:00,
2013-02-13 10:20:00,54.2,50.0,29.95,West,269,1.0,9.0,84,0.00,,,0.00,weatherlink.com 1.10,2013-02-13 16:20:00,
2013-02-13 10:35:00,53.8,50.0,29.95,WNW,300,0.0,5.0,88,0.00,,,0.00,weatherlink.com 1.10,2013-02-13 16:35:00,
2013-02-13 10:50:00,53.0,50.0,29.94,NNE,18,0.0,4.0,90,0.01,,,0.01,weatherlink.com 1.10,2013-02-13 16:50:00,
2013-02-13 11:05:00,53.1,51.0,29.95,West,270,0.0,1.0,92,0.01,,,0.01,weatherlink.com 1.10,2013-02-13 17:05:00,
2013-02-13 11:20:00,53.2,51.0,29.95,WSW,245,0.0,2.0,92,0.01,,,0.01,weatherlink.com 1.10,2013-02-13 17:20:00,
2013-02-13 11:35:00,53.1,50.0,29.96,WNW,285,0.0,3.0,90,0.01,,,0.01,weatherlink.com 1.10,2013-02-13 17:35:00,
2013-02-13 11:50:00,53.2,51.0,29.97,NW,312,0.0,3.0,91,0.01,,,0.02,weatherlink.com 1.10,2013-02-13 17:50:00,
2013-02-13 12:05:00,53.0,51.0,29.96,NW,323,0.0,0.0,92,0.01,,,0.02,weatherlink.com 1.10,2013-02-13 18:05:00,
2013-02-13 12:20:00,52.6,51.0,29.97,SSW,195,0.0,0.0,94,0.02,,,0.03,weatherlink.com 1.10,2013-02-13 18:20:00,
2013-02-13 12:35:00,52.3,51.0,29.96,WNW,291,0.0,0.0,95,0.03,,,0.04,weatherlink.com 1.10,2013-02-13 18:35:00,
2013-02-13 12:50:00,51.5,50.0,29.95,NW,308,0.0,5.0,95,0.04,,,0.06,weatherlink.com 1.10,2013-02-13 18:50:00,
2013-02-13 13:06:00,49.9,49.0,29.97,ENE,61,0.0,3.0,95,0.05,,,0.07,weatherlink.com 1.10,2013-02-13 19:06:00,
2013-02-13 13:21:00,49.3,48.0,29.96,WNW,288,1.0,7.0,96,0.07,,,0.10,weatherlink.com 1.10,2013-02-13 19:21:00,
2013-02-13 13:35:00,48.6,48.0,29.95,North,5,1.0,3.0,96,0.09,,,0.13,weatherlink.com 1.10,2013-02-13 19:35:00,
2013-02-13 13:50:00,48.2,47.0,29.96,WNW,282,0.0,4.0,97,0.11,,,0.17,weatherlink.com 1.10,2013-02-13 19:50:00,
2013-02-13 14:05:00,47.7,47.0,29.98,NW,305,0.0,4.0,97,0.13,,,0.21,weatherlink.com 1.10,2013-02-13 20:05:00,
2013-02-13 14:20:00,47.6,47.0,29.97,WNW,301,0.0,3.0,97,0.16,,,0.26,weatherlink.com 1.10,2013-02-13 20:20:00,
2013-02-13 14:35:00,47.6,47.0,29.97,WNW,285,0.0,1.0,98,0.15,,,0.28,weatherlink.com 1.10,2013-02-13 20:35:00,
2013-02-13 14:51:00,47.7,47.0,29.93,NE,44,0.0,3.0,98,0.12,,,0.29,weatherlink.com 1.10,2013-02-13 20:51:00,
2013-02-13 15:05:00,47.9,47.0,29.95,WNW,287,0.0,1.0,98,0.08,,,0.30,weatherlink.com 1.10,2013-02-13 21:05:00,
2013-02-13 15:21:00,47.9,47.0,29.96,West,266,0.0,4.0,98,0.03,,,0.30,weatherlink.com 1.10,2013-02-13 21:21:00,
2013-02-13 15:35:00,48.2,48.0,29.96,WNW,292,0.0,0.0,98,0.02,,,0.30,weatherlink.com 1.10,2013-02-13 21:35:00,
2013-02-13 15:50:00,48.4,48.0,29.97,West,279,0.0,1.0,98,0.01,,,0.30,weatherlink.com 1.10,2013-02-13 21:50:00,
2013-02-13 16:06:00,48.4,48.0,29.96,SW,228,0.0,1.0,97,0.00,,,0.30,weatherlink.com 1.10,2013-02-13 22:06:00,
2013-02-13 16:20:00,48.8,48.0,29.96,SW,231,0.0,1.0,97,0.00,,,0.30,weatherlink.com 1.10,2013-02-13 22:20:00,
2013-02-13 16:36:00,48.8,48.0,29.96,WNW,288,0.0,1.0,97,0.00,,,0.30,weatherlink.com 1.10,2013-02-13 22:36:00,
2013-02-13 16:45:00,48.9,48.1,29.97,SSW,193,0.0,0.0,97,0.00,,,0.30,Wunderground v.1.15,2013-02-13 22:45:00,
2013-02-13 16:50:00,48.8,48.0,29.97,SW,227,0.0,1.0,97,0.00,,,0.30,weatherlink.com 1.10,2013-02-13 22:50:00,
2013-02-13 17:00:00,48.7,47.9,29.98,SSW,212,0.0,0.0,97,0.00,,,0.30,Wunderground v.1.15,2013-02-13 23:00:00,
2013-02-13 17:05:00,48.6,48.0,29.98,SSW,212,0.0,1.0,97,0.00,,,0.30,weatherlink.com 1.10,2013-02-13 23:05:00,
2013-02-13 17:10:00,48.6,47.8,29.98,SSW,212,0.0,0.0,97,0.00,,,0.30,Wunderground v.1.15,2013-02-13 23:10:00,
2013-02-13 17:15:00,48.5,47.7,29.98,SW,231,0.0,0.0,97,0.00,,,0.30,Wunderground v.1.15,2013-02-13 23:15:00,
2013-02-13 17:20:00,48.5,48.0,29.98,WSW,238,0.0,1.0,97,0.00,,,0.30,weatherlink.com 1.10,2013-02-13 23:20:00,
2013-02-13 17:25:00,48.4,47.6,29.98,NNW,345,0.0,0.0,97,0.00,,,0.30,Wunderground v.1.15,2013-02-13 23:25:00,
2013-02-13 17:30:00,48.3,47.5,29.98,NNW,343,0.0,0.0,97,0.00,,,0.30,Wunderground v.1.15,2013-02-13 23:30:00,
2013-02-13 17:35:00,48.2,47.0,29.98,NNW,342,0.0,0.0,97,0.00,,,0.30,weatherlink.com 1.10,2013-02-13 23:35:00,
2013-02-13 17:45:00,48.1,47.6,29.98,West,277,0.0,0.0,98,0.00,,,0.30,Wunderground v.1.15,2013-02-13 23:45:00,
2013-02-13 17:50:00,48.1,47.6,29.98,West,277,0.0,0.0,98,0.00,,,0.30,Wunderground v.1.15,2013-02-13 23:50:00,
2013-02-13 17:55:00,48.0,47.5,29.98,West,277,0.0,0.0,98,0.00,,,0.30,Wunderground v.1.15,2013-02-13 23:55:00,
2013-02-13 18:05:00,48.0,47.5,29.98,WSW,248,0.0,0.0,98,0.00,,,0.30,Wunderground v.1.15,2013-02-14 00:05:00,
2013-02-13 18:15:00,47.9,47.4,29.98,SW,235,0.0,0.0,98,0.00,,,0.30,Wunderground v.1.15,2013-02-14 00:15:00,
2013-02-13 18:21:00,47.8,47.0,29.98,SW,235,0.0,0.0,98,0.00,,,0.30,weatherlink.com 1.10,2013-02-14 00:21:00,
2013-02-13 18:30:00,47.7,47.2,29.98,SW,235,0.0,0.0,98,0.00,,,0.30,Wunderground v.1.15,2013-02-14 00:30:00,
2013-02-13 18:35:00,47.6,47.1,29.99,SW,235,0.0,0.0,98,0.00,,,0.30,Wunderground v.1.15,2013-02-14 00:35:00,
2013-02-13 18:45:00,47.2,46.7,29.99,SW,235,0.0,0.0,98,0.00,,,0.30,Wunderground v.1.15,2013-02-14 00:45:00,
2013-02-13 18:50:00,47.1,46.6,29.99,SW,235,0.0,0.0,98,0.00,,,0.30,Wunderground v.1.15,2013-02-14 00:50:00,
2013-02-13 18:55:00,47.0,46.5,29.99,SW,235,0.0,0.0,98,0.00,,,0.30,Wunderground v.1.15,2013-02-14 00:55:00,
2013-02-13 19:00:00,47.0,46.7,29.99,SW,235,0.0,0.0,99,0.00,,,0.30,Wunderground v.1.15,2013-02-14 01:00:00,
2013-02-13 19:07:00,46.9,46.0,30.00,SW,235,0.0,0.0,98,0.00,,,0.30,weatherlink.com 1.10,2013-02-14 01:07:00,
2013-02-13 19:15:00,46.6,46.1,30.00,SW,236,0.0,0.0,98,0.00,,,0.30,Wunderground v.1.15,2013-02-14 01:15:00,
2013-02-13 19:20:00,46.6,46.3,30.00,SW,235,0.0,0.0,99,0.00,,,0.30,Wunderground v.1.15,2013-02-14 01:20:00,
2013-02-13 19:25:00,46.7,46.4,30.00,SW,235,0.0,0.0,99,0.00,,,0.30,Wunderground v.1.15,2013-02-14 01:25:00,
2013-02-13 19:30:00,46.8,46.5,30.00,SW,235,0.0,0.0,99,0.00,,,0.30,Wunderground v.1.15,2013-02-14 01:30:00,
2013-02-13 19:36:00,46.7,47.0,30.00,SW,235,0.0,0.0,99,0.00,,,0.30,weatherlink.com 1.10,2013-02-14 01:36:00,
2013-02-13 19:45:00,46.7,46.4,30.00,SW,235,0.0,0.0,99,0.00,,,0.30,Wunderground v.1.15,2013-02-14 01:45:00,
2013-02-13 19:50:00,46.7,46.4,30.00,SW,235,0.0,0.0,99,0.00,,,0.30,Wunderground v.1.15,2013-02-14 01:50:00,
2013-02-13 19:55:00,46.7,46.4,30.00,SW,235,0.0,0.0,99,0.00,,,0.30,Wunderground v.1.15,2013-02-14 01:55:00,
2013-02-13 20:00:00,46.9,46.6,30.01,SW,228,0.0,0.0,99,0.00,,,0.30,Wunderground v.1.15,2013-02-14 02:00:00,
2013-02-13 20:05:00,46.9,46.6,30.02,SSW,207,0.0,0.0,99,0.00,,,0.30,Wunderground v.1.15,2013-02-14 02:05:00,
2013-02-13 20:15:00,47.0,46.7,30.02,SSW,207,0.0,0.0,99,0.00,,,0.30,Wunderground v.1.15,2013-02-14 02:15:00,
2013-02-13 20:21:00,47.0,47.0,30.02,SSW,208,0.0,0.0,99,0.00,,,0.30,weatherlink.com 1.10,2013-02-14 02:21:00,
2013-02-13 20:30:00,46.9,46.6,30.03,SSW,207,0.0,0.0,99,0.00,,,0.30,Wunderground v.1.15,2013-02-14 02:30:00,
2013-02-13 20:35:00,46.8,46.5,30.03,SSW,207,0.0,0.0,99,0.00,,,0.30,Wunderground v.1.15,2013-02-14 02:35:00,
2013-02-13 20:40:00,46.7,46.4,30.03,SSW,207,0.0,0.0,99,0.00,,,0.30,Wunderground v.1.15,2013-02-14 02:40:00,
2013-02-13 20:45:00,46.6,46.3,30.03,SSW,207,0.0,0.0,99,0.00,,,0.30,Wunderground v.1.15,2013-02-14 02:45:00,
2013-02-13 20:50:00,46.4,46.1,30.03,SSW,207,0.0,0.0,99,0.00,,,0.30,Wunderground v.1.15,2013-02-14 02:50:00,
2013-02-13 21:00:00,46.3,46.0,30.04,West,267,0.0,0.0,99,0.00,,,0.30,Wunderground v.1.15,2013-02-14 03:00:00,
2013-02-13 21:05:00,46.2,45.9,30.04,NE,39,0.0,0.0,99,0.00,,,0.30,Wunderground v.1.15,2013-02-14 03:05:00,
2013-02-13 21:15:00,46.0,45.7,30.05,NE,37,0.0,0.0,99,0.00,,,0.30,Wunderground v.1.15,2013-02-14 03:15:00,
2013-02-13 21:20:00,45.9,45.6,30.04,NE,37,0.0,0.0,99,0.00,,,0.30,Wunderground v.1.15,2013-02-14 03:20:00,
2013-02-13 21:25:00,45.8,45.5,30.05,NE,37,0.0,0.0,99,0.00,,,0.30,Wunderground v.1.15,2013-02-14 03:25:00,
2013-02-13 21:35:00,45.6,45.3,30.05,NE,37,0.0,0.0,99,0.00,,,0.30,Wunderground v.1.15,2013-02-14 03:35:00,
2013-02-13 21:40:00,45.4,45.1,30.05,NE,37,0.0,0.0,99,0.00,,,0.30,Wunderground v.1.15,2013-02-14 03:40:00,
2013-02-13 21:50:00,45.1,44.8,30.05,NE,37,0.0,0.0,99,0.00,,,0.30,Wunderground v.1.15,2013-02-14 03:50:00,
2013-02-13 21:55:00,45.0,44.7,30.05,NE,37,0.0,0.0,99,0.00,,,0.30,Wunderground v.1.15,2013-02-14 03:55:00,
2013-02-13 22:00:00,44.9,44.6,30.05,NE,37,0.0,0.0,99,0.00,,,0.30,Wunderground v.1.15,2013-02-14 04:00:00,
2013-02-13 22:05:00,44.9,44.6,30.06,NE,37,0.0,0.0,99,0.00,,,0.30,Wunderground v.1.15,2013-02-14 04:05:00,
2013-02-13 22:15:00,44.4,44.1,30.05,NE,37,0.0,0.0,99,0.00,,,0.30,Wunderground v.1.15,2013-02-14 04:15:00,
2013-02-13 22:21:00,44.1,44.0,30.05,NNE,16,0.0,0.0,99,0.00,,,0.30,weatherlink.com 1.10,2013-02-14 04:21:00,
2013-02-13 22:30:00,43.8,43.5,30.05,ENE,60,0.0,0.0,99,0.00,,,0.30,Wunderground v.1.15,2013-02-14 04:30:00,
2013-02-13 22:35:00,43.5,43.2,30.05,ENE,61,0.0,0.0,99,0.00,,,0.30,Wunderground v.1.15,2013-02-14 04:35:00,
2013-02-13 22:40:00,43.3,43.0,30.05,ENE,60,0.0,0.0,99,0.00,,,0.30,Wunderground v.1.15,2013-02-14 04:40:00,
2013-02-13 22:45:00,43.0,42.7,30.05,ENE,60,0.0,0.0,99,0.00,,,0.30,Wunderground v.1.15,2013-02-14 04:45:00,
2013-02-13 22:50:00,42.5,42.2,30.05,ENE,61,0.0,0.0,99,0.00,,,0.30,Wunderground v.1.15,2013-02-14 04:50:00,
2013-02-13 23:06:00,42.1,42.0,30.05,NNE,30,0.0,0.0,99,0.00,,,0.30,weatherlink.com 1.10,2013-02-14 05:06:00,
2013-02-13 23:15:00,42.1,41.8,30.05,WSW,238,0.0,0.0,99,0.00,,,0.30,Wunderground v.1.15,2013-02-14 05:15:00,
2013-02-13 23:22:00,42.0,42.0,30.06,NE,44,0.0,0.0,99,0.00,,,0.30,weatherlink.com 1.10,2013-02-14 05:22:00,
2013-02-13 23:25:00,42.0,41.7,30.06,NE,44,0.0,0.0,99,0.00,,,0.30,Wunderground v.1.15,2013-02-14 05:25:00,
2013-02-13 23:30:00,41.9,41.6,30.06,NE,44,0.0,0.0,99,0.00,,,0.30,Wunderground v.1.15,2013-02-14 05:30:00,
2013-02-13 23:35:00,41.6,41.3,30.06,NE,44,0.0,0.0,99,0.00,,,0.30,Wunderground v.1.15,2013-02-14 05:35:00,
2013-02-13 23:40:00,41.3,41.0,30.06,NE,44,0.0,0.0,99,0.00,,,0.30,Wunderground v.1.15,2013-02-14 05:40:00,
2013-02-13 23:45:00,41.1,40.8,30.06,NE,44,0.0,0.0,99,0.00,,,0.30,Wunderground v.1.15,2013-02-14 05:45:00,
2013-02-13 23:50:00,41.0,40.7,30.06,NE,44,0.0,0.0,99,0.00,,,0.30,Wunderground v.1.15,2013-02-14 05:50:00,